Погода Белина неделю

Тверская область, Россия

22 - 28 мая
  • 22мая
    Сегодня
    +9°
    +23°
    Ясно и безоблачно
    ВремяПогодаТемператураВлажностьДавлениеВетер, м/сВероятность осадков
    00:00Ясно и безоблачно+14°C74 %747 мм1.7 м/с2 %
    03:00Ясно и безоблачно+11°C73 %748 мм1.6 м/с2 %
    06:00Ясно и безоблачно+11°C67 %748 мм1.4 м/с2 %
    09:00Ясно и безоблачно+16°C61 %749 мм2.0 м/с2 %
    12:00Ясно и безоблачно+21°C45 %749 мм2.9 м/с2 %
    15:00Ясно и безоблачно+22°C38 %748 мм3.8 м/с2 %
    18:00Ясно и безоблачно+22°C37 %749 мм2.9 м/с3 %
    21:00Ясно и безоблачно+18°C50 %749 мм2.3 м/с2 %
  • 23мая
    Четверг
    +8°
    +21°
    Ясно и безоблачно
    ВремяПогодаТемператураВлажностьДавлениеВетер, м/сВероятность осадков
    00:00Практически безоблачно+14°C51 %750 мм2.1 м/с2 %
    03:00Ясно и безоблачно+11°C57 %751 мм2.1 м/с2 %
    06:00Ясно и безоблачно+10°C62 %752 мм2.0 м/с2 %
    09:00Ясно и безоблачно+16°C52 %753 мм2.7 м/с2 %
    12:00Ясно и безоблачно+20°C37 %753 мм3.5 м/с2 %
    15:00Ясно и безоблачно+20°C34 %753 мм3.8 м/с2 %
    18:00Ясно и безоблачно+20°C37 %753 мм3.0 м/с2 %
    21:00Ясно и безоблачно+17°C50 %754 мм2.3 м/с2 %
  • 24мая
    Пятница
    +7°
    +20°
    Ясно и безоблачно
    ВремяПогодаТемператураВлажностьДавлениеВетер, м/сВероятность осадков
    00:00Ясно и безоблачно+13°C56 %754 мм1.9 м/с2 %
    03:00Ясно и безоблачно+10°C61 %755 мм1.8 м/с2 %
    06:00Ясно и безоблачно+9°C63 %756 мм1.7 м/с2 %
    09:00Ясно и безоблачно+15°C44 %757 мм2.6 м/с2 %
    12:00Ясно и безоблачно+18°C34 %757 мм3.2 м/с2 %
    15:00Ясно и безоблачно+19°C30 %756 мм3.6 м/с2 %
    18:00Ясно и безоблачно+20°C31 %755 мм2.6 м/с2 %
    21:00Ясно и безоблачно+16°C49 %755 мм2.2 м/с2 %
  • 25мая
    Суббота
    +10°
    +23°
    Практически безоблачно
    ВремяПогодаТемператураВлажностьДавлениеВетер, м/сВероятность осадков
    00:00Ясно и безоблачно+11°C61 %755 мм1.7 м/с2 %
    03:00Ясно и безоблачно+9°C70 %755 мм1.7 м/с2 %
    06:00Ясно и безоблачно+9°C71 %755 мм1.5 м/с2 %
    09:00Ясно и безоблачно+16°C53 %755 мм2.0 м/с2 %
    12:00Ясно и безоблачно+20°C42 %754 мм2.5 м/с2 %
    15:00Практически безоблачно+22°C38 %753 мм3.1 м/с3 %
    18:00Ясно и безоблачно+23°C39 %752 мм2.1 м/с2 %
    21:00Ясно и безоблачно+18°C57 %752 мм1.9 м/с2 %
  • 26мая
    Воскресенье
    +10°
    +25°
    Облачно с прояснениями
    ВремяПогодаТемператураВлажностьДавлениеВетер, м/сВероятность осадков
    00:00Ясно и безоблачно+14°C66 %752 мм1.4 м/с2 %
    03:00Ясно и безоблачно+11°C71 %752 мм1.2 м/с2 %
    06:00Ясно и безоблачно+11°C69 %752 мм1.1 м/с2 %
    09:00Небольшая облачность+18°C52 %753 мм1.3 м/с2 %
    12:00Облачно с прояснениями+22°C39 %752 мм1.5 м/с5 %
    15:00Облачно с прояснениями+23°C37 %752 мм2.0 м/с9 %
    18:00Ясно и безоблачно+24°C37 %751 мм1.0 м/с42 %
    21:00Ясно и безоблачно+19°C60 %751 мм1.0 м/с21 %
Мы используем cookies
Соглашаюсь